This is the latest recevied weather packets stored in our database for station/object K1JO. If no packets are shown the sender has not sent any weather packets the latest 10 day(s).
| Time | Temp. | Humidity | Pressure | Rain* | Wind** | Luminosity | Snow |
|---|---|---|---|---|---|---|---|
| 1787417908 | 26.11° C | 44% | 1016 hPa | 0 mm | - | 310 W/m² | - |
| 1787417605 | 26.67° C | 43% | 1015.8 hPa | 0 mm | - | 347 W/m² | - |
| 1787417304 | 26.11° C | 43% | 1016 hPa | 0 mm | - | 369 W/m² | - |
| 1787417000 | 26.67° C | 42% | 1015.8 hPa | 0 mm | - | 356 W/m² | - |
| 1787416695 | 26.67° C | 42% | 1015.8 hPa | 0 mm | - | 357 W/m² | - |
| 1787416391 | 26.11° C | 44% | 1015.9 hPa | 0 mm | - | 336 W/m² | - |
| 1787416090 | 26.11° C | 44% | 1015.9 hPa | 0 mm | - | 330 W/m² | - |
| 1787415786 | 26.11° C | 43% | 1015.8 hPa | 0 mm | - | 316 W/m² | - |
| 1787415485 | 26.11° C | 44% | 1016 hPa | 0 mm | - | 250 W/m² | - |
| 1787415181 | 26.11° C | 44% | 1015.9 hPa | 0 mm | - | 246 W/m² | - |
| 1787414876 | 26.11° C | 43% | 1015.9 hPa | 0 mm | - | 319 W/m² | - |
| 1787414572 | 26.11° C | 42% | 1016.1 hPa | 0 mm | - | 348 W/m² | - |
| 1787414270 | 26.11° C | 41% | 1016 hPa | 0 mm | - | 353 W/m² | - |
| 1787413966 | 26.67° C | 42% | 1015.9 hPa | 0 mm | - | 456 W/m² | - |
| 1787413665 | 26.67° C | 41% | 1016.1 hPa | 0 mm | - | 518 W/m² | - |
| 1787413365 | 26.11° C | 43% | 1016.2 hPa | 0 mm | - | 486 W/m² | - |
| 1787413061 | 25.56° C | 42% | 1016.3 hPa | 0 mm | - | 362 W/m² | - |
| 1787412758 | 26.11° C | 43% | 1016.4 hPa | 0 mm | - | 318 W/m² | - |
| 1787412456 | 27.22° C | 43% | 1016.3 hPa | 0 mm | - | 448 W/m² | - |
| 1787412153 | 27.22° C | 42% | 1016.4 hPa | 0 mm | - | 613 W/m² | - |
| 1787411850 | 26.11° C | 42% | 1016.5 hPa | 0 mm | - | 640 W/m² | - |
| 1787411545 | 26.11° C | 42% | 1016.4 hPa | 0 mm | - | 547 W/m² | - |
| 1787411240 | 26.11° C | 44% | 1016.6 hPa | 0 mm | - | 579 W/m² | - |
| 1787410937 | 26.67° C | 43% | 1016.5 hPa | 0 mm | - | 363 W/m² | - |
| 1787410632 | 26.67° C | 42% | 1016.8 hPa | 0 mm | - | 676 W/m² | - |
* Rain latest hour (hover to see other rain measurements)
** Current wind speed in m/s (hover to see current wind gust speed)